sensor_id;sensor_type;location;lat;lon;timestamp;pressure;altitude;pressure_sealevel;temperature
67599;BMP280;62026;39.230;9.122;2022-09-16T00:00:41;100507.72;;;28.23
67599;BMP280;62026;39.230;9.122;2022-09-16T00:03:12;100540.97;;;28.20
67599;BMP280;62026;39.230;9.122;2022-09-16T00:05:46;100567.91;;;28.25
67599;BMP280;62026;39.230;9.122;2022-09-16T00:08:14;100570.63;;;28.25
67599;BMP280;62026;39.230;9.122;2022-09-16T00:10:40;100538.16;;;28.28
67599;BMP280;62026;39.230;9.122;2022-09-16T00:13:09;100533.72;;;28.24
67599;BMP280;62026;39.230;9.122;2022-09-16T00:15:35;100555.44;;;28.12
67599;BMP280;62026;39.230;9.122;2022-09-16T00:18:01;100641.56;;;28.23
67599;BMP280;62026;39.230;9.122;2022-09-16T00:20:27;100647.34;;;28.22
67599;BMP280;62026;39.230;9.122;2022-09-16T00:22:53;100652.09;;;28.25
67599;BMP280;62026;39.230;9.122;2022-09-16T00:25:19;100646.66;;;28.25
67599;BMP280;62026;39.230;9.122;2022-09-16T00:27:48;100681.06;;;28.21
67599;BMP280;62026;39.230;9.122;2022-09-16T00:30:15;100672.75;;;28.05
67599;BMP280;62026;39.230;9.122;2022-09-16T00:32:41;100669.59;;;28.15
67599;BMP280;62026;39.230;9.122;2022-09-16T00:35:07;100661.56;;;28.19
67599;BMP280;62026;39.230;9.122;2022-09-16T00:37:33;100663.63;;;28.22
67599;BMP280;62026;39.230;9.122;2022-09-16T00:39:59;100674.25;;;28.15
67599;BMP280;62026;39.230;9.122;2022-09-16T00:42:25;100688.03;;;28.09
67599;BMP280;62026;39.230;9.122;2022-09-16T00:45:00;100717.91;;;28.09
67599;BMP280;62026;39.230;9.122;2022-09-16T00:47:41;100706.44;;;28.04
67599;BMP280;62026;39.230;9.122;2022-09-16T00:50:19;100699.31;;;27.99
67599;BMP280;62026;39.230;9.122;2022-09-16T00:52:48;100688.31;;;27.96
67599;BMP280;62026;39.230;9.122;2022-09-16T00:55:20;100668.06;;;27.93
67599;BMP280;62026;39.230;9.122;2022-09-16T00:57:47;100640.34;;;27.88
67599;BMP280;62026;39.230;9.122;2022-09-16T01:00:14;100638.22;;;27.93
67599;BMP280;62026;39.230;9.122;2022-09-16T01:02:41;100616.06;;;27.91
67599;BMP280;62026;39.230;9.122;2022-09-16T01:05:13;100623.03;;;27.92
67599;BMP280;62026;39.230;9.122;2022-09-16T01:07:44;100627.34;;;27.93
67599;BMP280;62026;39.230;9.122;2022-09-16T01:10:13;100664.84;;;27.79
67599;BMP280;62026;39.230;9.122;2022-09-16T01:12:41;100624.94;;;27.80
67599;BMP280;62026;39.230;9.122;2022-09-16T01:15:09;100599.72;;;27.79
67599;BMP280;62026;39.230;9.122;2022-09-16T01:18:06;100587.72;;;27.80
67599;BMP280;62026;39.230;9.122;2022-09-16T01:32:39;100497.47;;;27.71
67599;BMP280;62026;39.230;9.122;2022-09-16T01:40:51;100516.50;;;27.83
67599;BMP280;62026;39.230;9.122;2022-09-16T01:46:17;100606.88;;;27.96
67599;BMP280;62026;39.230;9.122;2022-09-16T01:48:54;100594.44;;;27.95
67599;BMP280;62026;39.230;9.122;2022-09-16T01:57:14;100548.41;;;27.98
67599;BMP280;62026;39.230;9.122;2022-09-16T02:02:35;100511.31;;;27.90
67599;BMP280;62026;39.230;9.122;2022-09-16T02:05:08;100490.28;;;27.75
67599;BMP280;62026;39.230;9.122;2022-09-16T02:07:39;100469.88;;;27.57
67599;BMP280;62026;39.230;9.122;2022-09-16T02:10:16;100460.84;;;27.65
67599;BMP280;62026;39.230;9.122;2022-09-16T02:12:45;100446.63;;;27.68
67599;BMP280;62026;39.230;9.122;2022-09-16T02:15:15;100449.81;;;27.82
67599;BMP280;62026;39.230;9.122;2022-09-16T02:17:52;100448.19;;;27.81
67599;BMP280;62026;39.230;9.122;2022-09-16T02:20:24;100447.22;;;27.86
67599;BMP280;62026;39.230;9.122;2022-09-16T02:22:57;100428.53;;;27.84
67599;BMP280;62026;39.230;9.122;2022-09-16T02:25:25;100422.97;;;27.93
67599;BMP280;62026;39.230;9.122;2022-09-16T02:27:53;100411.22;;;27.89
67599;BMP280;62026;39.230;9.122;2022-09-16T02:30:21;100424.22;;;27.83
67599;BMP280;62026;39.230;9.122;2022-09-16T02:32:52;100445.25;;;27.86
67599;BMP280;62026;39.230;9.122;2022-09-16T02:35:20;100452.50;;;27.94
67599;BMP280;62026;39.230;9.122;2022-09-16T02:40:23;100461.09;;;27.96
67599;BMP280;62026;39.230;9.122;2022-09-16T02:42:50;100457.28;;;27.97
67599;BMP280;62026;39.230;9.122;2022-09-16T02:45:17;100435.56;;;27.85
67599;BMP280;62026;39.230;9.122;2022-09-16T02:51:22;100463.94;;;27.88
67599;BMP280;62026;39.230;9.122;2022-09-16T02:53:59;100456.03;;;27.83
67599;BMP280;62026;39.230;9.122;2022-09-16T02:56:30;100456.47;;;27.85
67599;BMP280;62026;39.230;9.122;2022-09-16T02:58:57;100451.38;;;27.83
67599;BMP280;62026;39.230;9.122;2022-09-16T03:01:23;100454.09;;;27.83
67599;BMP280;62026;39.230;9.122;2022-09-16T03:03:53;100450.91;;;27.81
67599;BMP280;62026;39.230;9.122;2022-09-16T03:06:25;100446.97;;;27.79
67599;BMP280;62026;39.230;9.122;2022-09-16T03:08:53;100458.38;;;27.84
67599;BMP280;62026;39.230;9.122;2022-09-16T03:12:04;100459.44;;;27.92
67599;BMP280;62026;39.230;9.122;2022-09-16T03:20:52;100455.41;;;27.89
67599;BMP280;62026;39.230;9.122;2022-09-16T03:26:51;100435.31;;;27.90
67599;BMP280;62026;39.230;9.122;2022-09-16T03:29:37;100425.81;;;27.84
67599;BMP280;62026;39.230;9.122;2022-09-16T03:37:24;100463.13;;;27.87
67599;BMP280;62026;39.230;9.122;2022-09-16T03:39:55;100437.59;;;27.76
67599;BMP280;62026;39.230;9.122;2022-09-16T03:42:22;100447.53;;;27.84
67599;BMP280;62026;39.230;9.122;2022-09-16T03:44:48;100451.38;;;27.83
67599;BMP280;62026;39.230;9.122;2022-09-16T03:47:15;100450.81;;;27.90
67599;BMP280;62026;39.230;9.122;2022-09-16T03:49:42;100463.13;;;27.87
67599;BMP280;62026;39.230;9.122;2022-09-16T03:52:08;100466.97;;;27.86
67599;BMP280;62026;39.230;9.122;2022-09-16T03:54:35;100490.53;;;27.82
67599;BMP280;62026;39.230;9.122;2022-09-16T03:57:02;100487.13;;;27.85
67599;BMP280;62026;39.230;9.122;2022-09-16T03:59:28;100476.94;;;27.82
67599;BMP280;62026;39.230;9.122;2022-09-16T04:01:54;100503.16;;;27.78
67599;BMP280;62026;39.230;9.122;2022-09-16T04:04:21;100500.88;;;27.80
67599;BMP280;62026;39.230;9.122;2022-09-16T04:06:47;100486.63;;;27.71
67599;BMP280;62026;39.230;9.122;2022-09-16T04:09:13;100489.38;;;27.83
67599;BMP280;62026;39.230;9.122;2022-09-16T04:11:40;100484.28;;;27.70
67599;BMP280;62026;39.230;9.122;2022-09-16T04:14:06;100482.53;;;27.65
67599;BMP280;62026;39.230;9.122;2022-09-16T04:16:33;100481.66;;;27.61
67599;BMP280;62026;39.230;9.122;2022-09-16T04:18:59;100475.09;;;27.62
67599;BMP280;62026;39.230;9.122;2022-09-16T04:21:25;100469.66;;;27.62
67599;BMP280;62026;39.230;9.122;2022-09-16T04:23:51;100486.41;;;27.64
67599;BMP280;62026;39.230;9.122;2022-09-16T04:26:19;100497.94;;;27.61
67599;BMP280;62026;39.230;9.122;2022-09-16T04:28:46;100515.34;;;27.60
67599;BMP280;62026;39.230;9.122;2022-09-16T04:31:14;100519.50;;;27.57
67599;BMP280;62026;39.230;9.122;2022-09-16T04:33:40;100534.19;;;27.56
67599;BMP280;62026;39.230;9.122;2022-09-16T04:36:12;100524.81;;;27.54
67599;BMP280;62026;39.230;9.122;2022-09-16T04:38:40;100534.72;;;27.50
67599;BMP280;62026;39.230;9.122;2022-09-16T04:41:09;100525.47;;;27.51
67599;BMP280;62026;39.230;9.122;2022-09-16T04:43:35;100532.47;;;27.52
67599;BMP280;62026;39.230;9.122;2022-09-16T04:46:03;100543.31;;;27.52
67599;BMP280;62026;39.230;9.122;2022-09-16T04:48:29;100550.56;;;27.48
67599;BMP280;62026;39.230;9.122;2022-09-16T04:51:08;100552.13;;;27.49
67599;BMP280;62026;39.230;9.122;2022-09-16T04:53:35;100547.50;;;27.49
67599;BMP280;62026;39.230;9.122;2022-09-16T04:58:29;100545.81;;;27.45
67599;BMP280;62026;39.230;9.122;2022-09-16T05:00:55;100570.34;;;27.48
67599;BMP280;62026;39.230;9.122;2022-09-16T05:03:21;100574.84;;;27.44
67599;BMP280;62026;39.230;9.122;2022-09-16T05:05:47;100569.81;;;27.34
67599;BMP280;62026;39.230;9.122;2022-09-16T05:08:13;100581.09;;;27.36
67599;BMP280;62026;39.230;9.122;2022-09-16T05:10:39;100589.31;;;27.28
67599;BMP280;62026;39.230;9.122;2022-09-16T05:13:05;100591.38;;;27.31
67599;BMP280;62026;39.230;9.122;2022-09-16T05:15:32;100592.28;;;27.35
67599;BMP280;62026;39.230;9.122;2022-09-16T05:17:58;100579.63;;;27.27
67599;BMP280;62026;39.230;9.122;2022-09-16T05:20:24;100589.13;;;27.33
67599;BMP280;62026;39.230;9.122;2022-09-16T05:22:50;100578.16;;;27.29
67599;BMP280;62026;39.230;9.122;2022-09-16T05:25:16;100572.59;;;27.26
67599;BMP280;62026;39.230;9.122;2022-09-16T05:27:43;100593.50;;;27.25
67599;BMP280;62026;39.230;9.122;2022-09-16T05:30:09;100579.03;;;27.21
67599;BMP280;62026;39.230;9.122;2022-09-16T05:32:35;100585.56;;;27.20
67599;BMP280;62026;39.230;9.122;2022-09-16T05:35:02;100602.59;;;27.20
67599;BMP280;62026;39.230;9.122;2022-09-16T05:37:28;100594.16;;;27.22
67599;BMP280;62026;39.230;9.122;2022-09-16T05:39:54;100588.59;;;27.18
67599;BMP280;62026;39.230;9.122;2022-09-16T05:42:20;100581.72;;;27.21
67599;BMP280;62026;39.230;9.122;2022-09-16T05:44:46;100571.41;;;27.14
67599;BMP280;62026;39.230;9.122;2022-09-16T05:47:12;100603.75;;;27.19
67599;BMP280;62026;39.230;9.122;2022-09-16T05:49:39;100604.22;;;27.21
67599;BMP280;62026;39.230;9.122;2022-09-16T05:52:05;100538.19;;;27.17
67599;BMP280;62026;39.230;9.122;2022-09-16T05:54:31;100508.31;;;27.26
67599;BMP280;62026;39.230;9.122;2022-09-16T05:56:57;100509.13;;;27.27
67599;BMP280;62026;39.230;9.122;2022-09-16T05:59:23;100460.31;;;27.27
67599;BMP280;62026;39.230;9.122;2022-09-16T06:01:49;100427.56;;;27.32
67599;BMP280;62026;39.230;9.122;2022-09-16T06:04:15;100378.06;;;27.22
67599;BMP280;62026;39.230;9.122;2022-09-16T06:06:43;100398.16;;;27.21
67599;BMP280;62026;39.230;9.122;2022-09-16T06:09:22;100403.59;;;27.21
67599;BMP280;62026;39.230;9.122;2022-09-16T06:11:50;100444.47;;;27.16
67599;BMP280;62026;39.230;9.122;2022-09-16T06:14:18;100420.41;;;27.15
67599;BMP280;62026;39.230;9.122;2022-09-16T06:16:44;100388.41;;;27.08
67599;BMP280;62026;39.230;9.122;2022-09-16T06:19:13;100461.84;;;27.15
67599;BMP280;62026;39.230;9.122;2022-09-16T06:21:40;100470.25;;;27.22
67599;BMP280;62026;39.230;9.122;2022-09-16T06:24:08;100499.94;;;27.19
67599;BMP280;62026;39.230;9.122;2022-09-16T06:26:37;100518.38;;;27.26
67599;BMP280;62026;39.230;9.122;2022-09-16T06:29:04;100508.84;;;27.19
67599;BMP280;62026;39.230;9.122;2022-09-16T06:31:33;100543.22;;;27.28
67599;BMP280;62026;39.230;9.122;2022-09-16T06:34:01;100549.31;;;27.24
67599;BMP280;62026;39.230;9.122;2022-09-16T06:36:29;100586.31;;;27.29
67599;BMP280;62026;39.230;9.122;2022-09-16T06:38:56;100595.88;;;27.27
67599;BMP280;62026;39.230;9.122;2022-09-16T06:41:22;100592.41;;;27.17
67599;BMP280;62026;39.230;9.122;2022-09-16T06:43:49;100590.47;;;27.27
67599;BMP280;62026;39.230;9.122;2022-09-16T06:46:22;100601.94;;;27.23
67599;BMP280;62026;39.230;9.122;2022-09-16T06:48:50;100618.06;;;27.29
67599;BMP280;62026;39.230;9.122;2022-09-16T06:51:19;100640.31;;;27.34
67599;BMP280;62026;39.230;9.122;2022-09-16T06:53:45;100647.72;;;27.25
67599;BMP280;62026;39.230;9.122;2022-09-16T06:56:14;100622.44;;;27.33
67599;BMP280;62026;39.230;9.122;2022-09-16T06:58:41;100598.59;;;27.27
67599;BMP280;62026;39.230;9.122;2022-09-16T07:01:12;100562.78;;;27.33
67599;BMP280;62026;39.230;9.122;2022-09-16T07:03:43;100476.38;;;27.32
67599;BMP280;62026;39.230;9.122;2022-09-16T07:06:10;100484.72;;;27.27
67599;BMP280;62026;39.230;9.122;2022-09-16T07:08:37;100401.31;;;27.23
67599;BMP280;62026;39.230;9.122;2022-09-16T07:11:07;100411.03;;;27.24
67599;BMP280;62026;39.230;9.122;2022-09-16T07:13:33;100424.97;;;27.23
67599;BMP280;62026;39.230;9.122;2022-09-16T07:16:01;100468.19;;;27.19
67599;BMP280;62026;39.230;9.122;2022-09-16T07:18:30;100487.69;;;27.13
67599;BMP280;62026;39.230;9.122;2022-09-16T07:21:01;100478.38;;;27.22
67599;BMP280;62026;39.230;9.122;2022-09-16T07:23:30;100474.34;;;27.41
67599;BMP280;62026;39.230;9.122;2022-09-16T07:28:40;100486.03;;;27.53
67599;BMP280;62026;39.230;9.122;2022-09-16T07:31:08;100504.66;;;27.55
67599;BMP280;62026;39.230;9.122;2022-09-16T07:33:36;100515.97;;;27.45
67599;BMP280;62026;39.230;9.122;2022-09-16T07:36:03;100530.09;;;27.50
67599;BMP280;62026;39.230;9.122;2022-09-16T07:38:30;100538.97;;;27.59
67599;BMP280;62026;39.230;9.122;2022-09-16T07:41:13;100529.81;;;27.64
67599;BMP280;62026;39.230;9.122;2022-09-16T07:43:41;100545.44;;;27.79
67599;BMP280;62026;39.230;9.122;2022-09-16T07:46:10;100537.44;;;27.83
67599;BMP280;62026;39.230;9.122;2022-09-16T07:48:36;100534.81;;;27.86
67599;BMP280;62026;39.230;9.122;2022-09-16T07:51:08;100545.22;;;27.84
67599;BMP280;62026;39.230;9.122;2022-09-16T07:53:35;100556.34;;;27.91
67599;BMP280;62026;39.230;9.122;2022-09-16T07:56:12;100558.16;;;27.99
67599;BMP280;62026;39.230;9.122;2022-09-16T07:58:39;100564.03;;;28.01
67599;BMP280;62026;39.230;9.122;2022-09-16T08:01:06;100577.41;;;28.06
67599;BMP280;62026;39.230;9.122;2022-09-16T08:03:34;100587.56;;;27.97
67599;BMP280;62026;39.230;9.122;2022-09-16T08:06:05;100600.78;;;27.99
67599;BMP280;62026;39.230;9.122;2022-09-16T08:08:32;100596.41;;;28.06
67599;BMP280;62026;39.230;9.122;2022-09-16T08:10:59;100606.69;;;28.01
67599;BMP280;62026;39.230;9.122;2022-09-16T08:13:26;100615.84;;;28.08
67599;BMP280;62026;39.230;9.122;2022-09-16T08:15:54;100620.84;;;28.06
67599;BMP280;62026;39.230;9.122;2022-09-16T08:18:20;100625.22;;;28.11
67599;BMP280;62026;39.230;9.122;2022-09-16T08:20:46;100632.25;;;28.12
67599;BMP280;62026;39.230;9.122;2022-09-16T08:23:12;100614.50;;;28.15
67599;BMP280;62026;39.230;9.122;2022-09-16T08:25:39;100639.44;;;28.29
67599;BMP280;62026;39.230;9.122;2022-09-16T08:28:14;100638.16;;;28.26
67599;BMP280;62026;39.230;9.122;2022-09-16T08:30:41;100641.94;;;28.46
67599;BMP280;62026;39.230;9.122;2022-09-16T08:33:07;100649.66;;;28.44
67599;BMP280;62026;39.230;9.122;2022-09-16T08:35:34;100639.66;;;28.48
67599;BMP280;62026;39.230;9.122;2022-09-16T08:38:00;100638.78;;;28.44
67599;BMP280;62026;39.230;9.122;2022-09-16T08:40:32;100638.31;;;28.54
67599;BMP280;62026;39.230;9.122;2022-09-16T08:43:09;100652.91;;;28.49
67599;BMP280;62026;39.230;9.122;2022-09-16T08:45:54;100627.25;;;28.59
67599;BMP280;62026;39.230;9.122;2022-09-16T08:48:46;100635.84;;;28.61
67599;BMP280;62026;39.230;9.122;2022-09-16T08:51:16;100631.53;;;28.60
67599;BMP280;62026;39.230;9.122;2022-09-16T08:53:55;100645.31;;;28.91
67599;BMP280;62026;39.230;9.122;2022-09-16T08:56:23;100638.97;;;28.63
67599;BMP280;62026;39.230;9.122;2022-09-16T08:58:54;100655.75;;;28.65
67599;BMP280;62026;39.230;9.122;2022-09-16T09:02:15;100647.59;;;28.65
67599;BMP280;62026;39.230;9.122;2022-09-16T09:04:21;100653.72;;;28.62
67599;BMP280;62026;39.230;9.122;2022-09-16T09:12:44;100671.59;;;28.75
67599;BMP280;62026;39.230;9.122;2022-09-16T09:25:35;100673.88;;;28.85
67599;BMP280;62026;39.230;9.122;2022-09-16T09:31:49;100660.44;;;29.17
67599;BMP280;62026;39.230;9.122;2022-09-16T09:40:20;100668.41;;;29.10
67599;BMP280;62026;39.230;9.122;2022-09-16T09:43:13;100653.53;;;29.19
67599;BMP280;62026;39.230;9.122;2022-09-16T09:45:53;100652.84;;;29.22
67599;BMP280;62026;39.230;9.122;2022-09-16T09:48:49;100655.44;;;29.31
67599;BMP280;62026;39.230;9.122;2022-09-16T09:51:29;100643.69;;;29.27
67599;BMP280;62026;39.230;9.122;2022-09-16T09:54:04;100650.25;;;29.14
67599;BMP280;62026;39.230;9.122;2022-09-16T09:56:44;100651.34;;;29.25
67599;BMP280;62026;39.230;9.122;2022-09-16T10:02:19;100651.88;;;29.70
67599;BMP280;62026;39.230;9.122;2022-09-16T10:04:46;100657.53;;;29.50
67599;BMP280;62026;39.230;9.122;2022-09-16T10:07:16;100653.41;;;29.28
67599;BMP280;62026;39.230;9.122;2022-09-16T10:10:11;100667.16;;;29.47
67599;BMP280;62026;39.230;9.122;2022-09-16T10:12:38;100666.69;;;30.01
67599;BMP280;62026;39.230;9.122;2022-09-16T10:15:04;100651.19;;;29.73
67599;BMP280;62026;39.230;9.122;2022-09-16T10:17:31;100663.56;;;29.71
67599;BMP280;62026;39.230;9.122;2022-09-16T10:20:04;100660.88;;;29.31
67599;BMP280;62026;39.230;9.122;2022-09-16T10:22:33;100663.06;;;29.53
67599;BMP280;62026;39.230;9.122;2022-09-16T10:25:05;100667.59;;;29.49
67599;BMP280;62026;39.230;9.122;2022-09-16T10:27:34;100641.22;;;29.10
67599;BMP280;62026;39.230;9.122;2022-09-16T10:30:14;100653.63;;;29.23
67599;BMP280;62026;39.230;9.122;2022-09-16T10:35:21;100620.09;;;29.19
67599;BMP280;62026;39.230;9.122;2022-09-16T10:37:51;100631.59;;;29.40
67599;BMP280;62026;39.230;9.122;2022-09-16T10:40:18;100629.94;;;29.35
67599;BMP280;62026;39.230;9.122;2022-09-16T10:42:46;100640.53;;;29.40
67599;BMP280;62026;39.230;9.122;2022-09-16T10:45:23;100634.34;;;29.28
67599;BMP280;62026;39.230;9.122;2022-09-16T10:47:53;100627.13;;;29.20
67599;BMP280;62026;39.230;9.122;2022-09-16T10:50:20;100603.09;;;29.22
67599;BMP280;62026;39.230;9.122;2022-09-16T10:52:47;100596.44;;;29.19
67599;BMP280;62026;39.230;9.122;2022-09-16T10:57:46;100570.56;;;28.98
67599;BMP280;62026;39.230;9.122;2022-09-16T11:00:21;100568.84;;;28.93
67599;BMP280;62026;39.230;9.122;2022-09-16T11:06:10;100589.84;;;28.68
67599;BMP280;62026;39.230;9.122;2022-09-16T11:14:10;100589.84;;;28.68
67599;BMP280;62026;39.230;9.122;2022-09-16T11:17:42;100599.94;;;28.68
67599;BMP280;62026;39.230;9.122;2022-09-16T11:25:24;100637.19;;;28.79
67599;BMP280;62026;39.230;9.122;2022-09-16T11:28:21;100637.63;;;28.81
67599;BMP280;62026;39.230;9.122;2022-09-16T11:36:20;100623.47;;;28.76
67599;BMP280;62026;39.230;9.122;2022-09-16T11:39:18;100610.22;;;28.74
67599;BMP280;62026;39.230;9.122;2022-09-16T11:55:37;100537.66;;;28.63
67599;BMP280;62026;39.230;9.122;2022-09-16T11:58:24;100531.22;;;28.55
67599;BMP280;62026;39.230;9.122;2022-09-16T12:00:53;100521.97;;;28.44
67599;BMP280;62026;39.230;9.122;2022-09-16T12:03:31;100531.22;;;28.55
67599;BMP280;62026;39.230;9.122;2022-09-16T12:06:21;100553.94;;;28.63
67599;BMP280;62026;39.230;9.122;2022-09-16T12:09:19;100543.88;;;28.63
67599;BMP280;62026;39.230;9.122;2022-09-16T12:11:55;100512.75;;;28.61
67599;BMP280;62026;39.230;9.122;2022-09-16T12:14:32;100496.56;;;28.64
67599;BMP280;62026;39.230;9.122;2022-09-16T12:17:04;100481.94;;;28.69
67599;BMP280;62026;39.230;9.122;2022-09-16T12:19:42;100465.94;;;28.79
67599;BMP280;62026;39.230;9.122;2022-09-16T12:22:18;100493.09;;;28.91
67599;BMP280;62026;39.230;9.122;2022-09-16T12:25:10;100498.94;;;28.93
67599;BMP280;62026;39.230;9.122;2022-09-16T12:27:45;100516.81;;;29.07
67599;BMP280;62026;39.230;9.122;2022-09-16T12:30:17;100517.56;;;29.19
67599;BMP280;62026;39.230;9.122;2022-09-16T12:35:38;100529.03;;;29.13
67599;BMP280;62026;39.230;9.122;2022-09-16T12:38:15;100513.50;;;29.13
67599;BMP280;62026;39.230;9.122;2022-09-16T12:49:22;100503.97;;;28.91
67599;BMP280;62026;39.230;9.122;2022-09-16T12:54:50;100508.66;;;29.07
67599;BMP280;62026;39.230;9.122;2022-09-16T13:00:28;100518.22;;;28.88
67599;BMP280;62026;39.230;9.122;2022-09-16T13:03:13;100491.88;;;28.89
67599;BMP280;62026;39.230;9.122;2022-09-16T13:05:45;100504.69;;;29.04
67599;BMP280;62026;39.230;9.122;2022-09-16T13:08:29;100498.22;;;29.09
67599;BMP280;62026;39.230;9.122;2022-09-16T13:10:58;100496.41;;;29.13
67599;BMP280;62026;39.230;9.122;2022-09-16T13:13:55;100494.63;;;29.05
67599;BMP280;62026;39.230;9.122;2022-09-16T13:16:32;100480.16;;;28.88
67599;BMP280;62026;39.230;9.122;2022-09-16T13:21:42;100478.00;;;28.94
67599;BMP280;62026;39.230;9.122;2022-09-16T13:24:29;100475.13;;;29.03
67599;BMP280;62026;39.230;9.122;2022-09-16T13:26:56;100462.44;;;29.07
67599;BMP280;62026;39.230;9.122;2022-09-16T13:31:49;100449.06;;;29.02
67599;BMP280;62026;39.230;9.122;2022-09-16T13:34:16;100448.63;;;29.00
67599;BMP280;62026;39.230;9.122;2022-09-16T13:36:42;100448.63;;;29.00
67599;BMP280;62026;39.230;9.122;2022-09-16T13:39:14;100444.00;;;29.00
67599;BMP280;62026;39.230;9.122;2022-09-16T13:41:43;100425.97;;;28.95
67599;BMP280;62026;39.230;9.122;2022-09-16T13:49:49;100431.84;;;28.82
67599;BMP280;62026;39.230;9.122;2022-09-16T13:52:27;100411.50;;;28.76
67599;BMP280;62026;39.230;9.122;2022-09-16T13:54:55;100432.81;;;28.89
67599;BMP280;62026;39.230;9.122;2022-09-16T14:00:12;100436.25;;;29.02
67599;BMP280;62026;39.230;9.122;2022-09-16T14:08:51;100427.13;;;28.94
67599;BMP280;62026;39.230;9.122;2022-09-16T14:11:42;100417.16;;;28.99
67599;BMP280;62026;39.230;9.122;2022-09-16T14:14:12;100389.94;;;28.83
67599;BMP280;62026;39.230;9.122;2022-09-16T14:16:41;100403.81;;;28.93
67599;BMP280;62026;39.230;9.122;2022-09-16T14:22:11;100389.41;;;28.93
67599;BMP280;62026;39.230;9.122;2022-09-16T14:24:40;100372.69;;;28.91
67599;BMP280;62026;39.230;9.122;2022-09-16T14:27:28;100378.75;;;29.00
67599;BMP280;62026;39.230;9.122;2022-09-16T14:32:23;100373.84;;;29.06
67599;BMP280;62026;39.230;9.122;2022-09-16T14:34:50;100350.66;;;28.96
67599;BMP280;62026;39.230;9.122;2022-09-16T14:37:18;100352.69;;;28.99
67599;BMP280;62026;39.230;9.122;2022-09-16T14:39:44;100348.47;;;29.02
67599;BMP280;62026;39.230;9.122;2022-09-16T14:42:17;100339.47;;;28.98
67599;BMP280;62026;39.230;9.122;2022-09-16T14:44:47;100335.66;;;29.02
67599;BMP280;62026;39.230;9.122;2022-09-16T14:50:04;100330.81;;;28.95
67599;BMP280;62026;39.230;9.122;2022-09-16T14:52:32;100323.38;;;28.92
67599;BMP280;62026;39.230;9.122;2022-09-16T14:54:59;100329.00;;;29.00
67599;BMP280;62026;39.230;9.122;2022-09-16T14:57:27;100333.06;;;29.06
67599;BMP280;62026;39.230;9.122;2022-09-16T14:59:57;100300.50;;;28.93
67599;BMP280;62026;39.230;9.122;2022-09-16T15:02:28;100329.09;;;29.03
67599;BMP280;62026;39.230;9.122;2022-09-16T15:04:58;100328.28;;;29.03
67599;BMP280;62026;39.230;9.122;2022-09-16T15:07:33;100318.13;;;29.00
67599;BMP280;62026;39.230;9.122;2022-09-16T15:10:13;100324.00;;;29.17
67599;BMP280;62026;39.230;9.122;2022-09-16T15:12:57;100323.06;;;29.10
67599;BMP280;62026;39.230;9.122;2022-09-16T15:15:26;100330.16;;;29.14
67599;BMP280;62026;39.230;9.122;2022-09-16T15:18:02;100329.38;;;29.14
67599;BMP280;62026;39.230;9.122;2022-09-16T15:20:33;100319.28;;;29.14
67599;BMP280;62026;39.230;9.122;2022-09-16T15:23:00;100322.19;;;29.21
67599;BMP280;62026;39.230;9.122;2022-09-16T15:25:32;100316.97;;;29.16
67599;BMP280;62026;39.230;9.122;2022-09-16T15:28:07;100316.22;;;29.16
67599;BMP280;62026;39.230;9.122;2022-09-16T15:30:48;100298.91;;;29.08
67599;BMP280;62026;39.230;9.122;2022-09-16T15:33:26;100298.56;;;29.10
67599;BMP280;62026;39.230;9.122;2022-09-16T15:35:57;100298.31;;;29.15
67599;BMP280;62026;39.230;9.122;2022-09-16T15:38:23;100285.44;;;29.12
67599;BMP280;62026;39.230;9.122;2022-09-16T15:41:24;100286.03;;;29.21
67599;BMP280;62026;39.230;9.122;2022-09-16T15:43:50;100283.03;;;29.26
67599;BMP280;62026;39.230;9.122;2022-09-16T15:46:21;100278.28;;;29.23
67599;BMP280;62026;39.230;9.122;2022-09-16T15:48:54;100284.44;;;29.20
67599;BMP280;62026;39.230;9.122;2022-09-16T15:51:34;100292.31;;;29.25
67599;BMP280;62026;39.230;9.122;2022-09-16T15:57:10;100297.34;;;29.23
67599;BMP280;62026;39.230;9.122;2022-09-16T16:02:33;100276.72;;;29.22
67599;BMP280;62026;39.230;9.122;2022-09-16T16:05:16;100292.59;;;29.20
67599;BMP280;62026;39.230;9.122;2022-09-16T16:07:53;100279.28;;;29.15
67599;BMP280;62026;39.230;9.122;2022-09-16T16:10:27;100292.16;;;29.18
67599;BMP280;62026;39.230;9.122;2022-09-16T16:12:56;100285.06;;;29.13
67599;BMP280;62026;39.230;9.122;2022-09-16T16:15:29;100287.06;;;29.16
67599;BMP280;62026;39.230;9.122;2022-09-16T16:17:58;100274.88;;;29.10
67599;BMP280;62026;39.230;9.122;2022-09-16T16:20:25;100291.13;;;29.07
67599;BMP280;62026;39.230;9.122;2022-09-16T16:22:51;100297.41;;;29.11
67599;BMP280;62026;39.230;9.122;2022-09-16T16:25:17;100304.47;;;29.12
67599;BMP280;62026;39.230;9.122;2022-09-16T16:27:44;100303.56;;;29.08
67599;BMP280;62026;39.230;9.122;2022-09-16T16:30:10;100311.38;;;29.09
67599;BMP280;62026;39.230;9.122;2022-09-16T16:32:36;100307.88;;;29.09
67599;BMP280;62026;39.230;9.122;2022-09-16T16:35:04;100316.03;;;29.09
67599;BMP280;62026;39.230;9.122;2022-09-16T16:37:30;100310.16;;;29.07
67599;BMP280;62026;39.230;9.122;2022-09-16T16:39:56;100317.88;;;29.05
67599;BMP280;62026;39.230;9.122;2022-09-16T16:42:22;100326.03;;;29.05
67599;BMP280;62026;39.230;9.122;2022-09-16T16:44:49;100332.16;;;29.02
67599;BMP280;62026;39.230;9.122;2022-09-16T16:47:16;100329.81;;;29.00
67599;BMP280;62026;39.230;9.122;2022-09-16T16:49:42;100337.59;;;29.02
67599;BMP280;62026;39.230;9.122;2022-09-16T16:52:08;100337.59;;;29.02
67599;BMP280;62026;39.230;9.122;2022-09-16T16:54:34;100332.94;;;29.02
67599;BMP280;62026;39.230;9.122;2022-09-16T16:57:01;100334.53;;;29.03
67599;BMP280;62026;39.230;9.122;2022-09-16T16:59:29;100338.84;;;29.04
67599;BMP280;62026;39.230;9.122;2022-09-16T17:01:56;100327.50;;;29.02
67599;BMP280;62026;39.230;9.122;2022-09-16T17:04:23;100332.94;;;29.02
67599;BMP280;62026;39.230;9.122;2022-09-16T17:06:50;100329.28;;;28.94
67599;BMP280;62026;39.230;9.122;2022-09-16T17:09:16;100332.44;;;28.97
67599;BMP280;62026;39.230;9.122;2022-09-16T17:14:15;100327.00;;;28.97